This is the latest recevied weather packets stored in our database for station/object HK4D-13. If no packets are shown the sender has not sent any weather packets the latest 10 day(s).
| Time | Temp. | Humidity | Pressure | Rain* | Wind** | Luminosity | Snow |
|---|---|---|---|---|---|---|---|
| 1787681907 | 23.33° C | 44% | 1010 hPa | 0 mm | - | - | - |
| 1787681307 | 23.33° C | 44% | 1010 hPa | 0 mm | - | - | - |
| 1787680707 | 23.33° C | 44% | 1010 hPa | 0 mm | - | - | - |
| 1787680106 | 23.33° C | 44% | 1010 hPa | 0 mm | - | - | - |
| 1787679506 | 23.33° C | 44% | 1010 hPa | 0 mm | - | - | - |
| 1787678905 | 23.33° C | 45% | 1011 hPa | 0 mm | - | - | - |
| 1787678305 | 23.33° C | 45% | 1011 hPa | 0 mm | - | - | - |
| 1787677704 | 23.33° C | 45% | 1011 hPa | 0 mm | - | - | - |
| 1787677104 | 23.33° C | 45% | 1011 hPa | 0 mm | - | - | - |
| 1787676503 | 23.33° C | 45% | 1011 hPa | 0 mm | - | - | - |
| 1787675903 | 23.33° C | 46% | 1011 hPa | 0 mm | - | - | - |
| 1787675302 | 22.78° C | 47% | 1012 hPa | 0 mm | - | - | - |
| 1787674702 | 22.22° C | 49% | 1012 hPa | 0 mm | - | - | - |
| 1787674102 | 21.67° C | 53% | 1012 hPa | 0 mm | - | - | - |
| 1787673501 | 21.11° C | 57% | 1012 hPa | 0 mm | - | - | - |
| 1787672901 | 21.11° C | 57% | 1012 hPa | 0 mm | - | - | - |
| 1787672300 | 20° C | 64% | 1013 hPa | 0 mm | - | - | - |
| 1787671699 | 20° C | 64% | 1014 hPa | 0 mm | - | - | - |
| 1787671099 | 20° C | 65% | 1014 hPa | 0 mm | - | - | - |
| 1787670498 | 20° C | 67% | 1014 hPa | 0 mm | - | - | - |
| 1787669898 | 19.44° C | 69% | 1014 hPa | 0 mm | - | - | - |
| 1787669297 | 18.89° C | 71% | 1014 hPa | 0 mm | - | - | - |
| 1787668697 | 18.33° C | 70% | 1014 hPa | 0 mm | - | - | - |
| 1787668096 | 18.33° C | 70% | 1015 hPa | 0 mm | - | - | - |
| 1787667496 | 17.78° C | 72% | 1015 hPa | 0 mm | - | - | - |
* Rain latest hour (hover to see other rain measurements)
** Current wind speed in m/s (hover to see current wind gust speed)